Time;durP1;ratioP1;P1;durP2;ratioP2;P2;SDS_P1;SDS_P2;PMS_P1;PMS_P2;Temp;Humidity;BMP_temperature;BMP_pressure;BME280_temperature;BME280_humidity;BME280_pressure;Samples;Min_cycle;Max_cycle;Signal;HPM_P1;HPM_P2
2021/05/20 00:02:16;;;;;;;3.20;2.90;;;;;;;14.67;65.17;100746.56;4903445;28;111556;-62
2021/05/20 00:04:42;;;;;;;2.80;2.55;;;;;;;14.67;65.44;100741.94;4885818;28;111992;-61
2021/05/20 00:07:09;;;;;;;2.90;2.55;;;;;;;14.67;65.43;100746.56;4920692;28;98096;-61
2021/05/20 00:09:35;;;;;;;3.67;2.80;;;;;;;14.67;65.48;100743.84;4869549;28;99095;-65
2021/05/20 00:12:01;;;;;;;3.00;2.55;;;;;;;14.65;65.92;100744.13;4902091;28;128181;-61
2021/05/20 00:14:27;;;;;;;3.03;2.58;;;;;;;14.63;65.99;100750.97;4919113;28;108645;-65
2021/05/20 00:16:55;;;;;;;3.45;2.95;;;;;;;14.64;65.54;100747.94;4920867;28;97934;-65
2021/05/20 00:19:24;;;;;;;4.75;3.03;;;;;;;14.63;65.90;100749.03;4912807;28;98293;-61
2021/05/20 00:21:50;;;;;;;4.00;2.92;;;;;;;14.62;65.88;100746.59;4921427;28;98337;-61
2021/05/20 00:24:16;;;;;;;3.97;2.78;;;;;;;14.62;65.66;100754.75;4922109;28;98054;-61
2021/05/20 00:26:42;;;;;;;3.22;2.60;;;;;;;14.60;66.08;100763.19;4903442;28;119216;-61
2021/05/20 00:29:09;;;;;;;3.00;2.70;;;;;;;14.61;65.78;100753.13;4872202;28;100675;-62
2021/05/20 00:31:35;;;;;;;2.85;2.60;;;;;;;14.60;66.05;100762.38;4904382;28;100061;-62
2021/05/20 00:34:01;;;;;;;2.92;2.63;;;;;;;14.59;65.81;100764.28;4903321;28;118227;-62
2021/05/20 00:36:27;;;;;;;3.17;2.88;;;;;;;14.60;66.07;100767.81;4923294;28;98017;-65
2021/05/20 00:38:53;;;;;;;2.90;2.60;;;;;;;14.59;65.87;100768.91;4915154;28;126226;-61
2021/05/20 00:41:21;;;;;;;3.03;2.72;;;;;;;14.56;66.10;100767.56;4910525;28;129109;-64
2021/05/20 00:43:48;;;;;;;3.33;2.67;;;;;;;14.58;65.76;100769.97;4901288;28;126735;-64
2021/05/20 00:46:14;;;;;;;2.80;2.55;;;;;;;14.56;65.90;100773.00;4885389;28;97971;-61
2021/05/20 00:48:40;;;;;;;2.97;2.67;;;;;;;14.56;66.40;100770.28;4883963;28;113633;-65
2021/05/20 00:51:06;;;;;;;2.97;2.40;;;;;;;14.56;66.14;100774.91;4901463;28;128073;-65
2021/05/20 00:53:32;;;;;;;2.90;2.70;;;;;;;14.57;66.18;100773.78;4921308;28;125028;-61
2021/05/20 00:55:59;;;;;;;2.85;2.65;;;;;;;14.54;66.41;100774.34;4888629;28;98201;-65
2021/05/20 00:58:25;;;;;;;3.05;2.78;;;;;;;14.54;66.44;100780.63;4871696;28;98775;-62
2021/05/20 01:00:54;;;;;;;2.90;2.50;;;;;;;14.55;66.17;100784.13;4919752;28;121892;-62
2021/05/20 01:03:22;;;;;;;3.05;2.72;;;;;;;14.55;66.25;100787.66;4887435;28;97982;-61
2021/05/20 01:05:50;;;;;;;2.67;2.40;;;;;;;14.53;66.23;100787.13;4888572;28;98077;-65
2021/05/20 01:08:16;;;;;;;2.50;2.30;;;;;;;14.54;66.47;100782.50;4904603;28;98438;-61
2021/05/20 01:10:42;;;;;;;2.88;2.60;;;;;;;14.54;66.25;100777.06;4903324;28;98028;-65
2021/05/20 01:13:09;;;;;;;3.00;2.70;;;;;;;14.51;66.51;100774.94;4903222;28;98148;-64
2021/05/20 01:15:35;;;;;;;3.67;2.83;;;;;;;14.50;66.45;100782.25;4914229;28;117780;-61
2021/05/20 01:18:03;;;;;;;2.40;2.20;;;;;;;14.50;66.65;100787.69;4883495;28;100970;-65
2021/05/20 01:20:31;;;;;;;3.05;2.75;;;;;;;14.48;66.18;100785.22;4902425;28;98620;-64
2021/05/20 01:23:12;;;;;;;2.72;2.45;;;;;;;14.43;66.67;100782.56;4902840;28;109874;-65
2021/05/20 01:25:39;;;;;;;2.67;2.47;;;;;;;14.45;66.60;100787.72;4902376;28;98080;-61
2021/05/20 01:28:10;;;;;;;3.30;2.60;;;;;;;14.41;66.64;100779.31;4900967;28;98777;-65
2021/05/20 01:30:38;;;;;;;2.70;2.50;;;;;;;14.41;66.70;100786.66;4901829;28;110792;-61
2021/05/20 01:33:04;;;;;;;2.85;2.63;;;;;;;14.40;66.73;100780.44;4884512;28;97999;-65
2021/05/20 01:35:30;;;;;;;2.80;2.53;;;;;;;14.36;66.76;100782.09;4902412;28;99495;-61
2021/05/20 01:41:00;;;;;;;2.55;2.35;;;;;;;14.30;67.06;100779.69;4900233;28;98077;-65
2021/05/20 01:43:27;;;;;;;2.63;2.33;;;;;;;14.30;66.99;100785.13;4883561;28;98496;-61
2021/05/20 01:46:02;;;;;;;3.00;2.20;;;;;;;14.27;66.81;100789.22;4902027;28;98177;-61
2021/05/20 01:48:36;;;;;;;3.03;2.58;;;;;;;14.24;67.31;100792.50;4901465;28;98974;-61
2021/05/20 01:51:06;;;;;;;2.45;2.25;;;;;;;14.23;67.13;100793.59;4904591;28;99137;-61
2021/05/20 01:53:33;;;;;;;2.60;2.40;;;;;;;14.21;67.14;100798.50;4912797;28;97916;-65
2021/05/20 01:55:59;;;;;;;3.63;2.50;;;;;;;14.20;67.24;100800.41;4921201;28;97972;-61
2021/05/20 01:58:25;;;;;;;2.83;2.47;;;;;;;14.19;67.08;100796.06;4903008;28;97777;-65
2021/05/20 02:00:52;;;;;;;3.10;2.55;;;;;;;14.14;67.10;100798.00;4920502;28;99519;-61
2021/05/20 02:03:18;;;;;;;2.72;2.47;;;;;;;14.13;66.96;100802.59;4912792;28;97995;-61
2021/05/20 02:05:44;;;;;;;2.92;2.40;;;;;;;14.10;67.74;100799.66;4921170;28;98198;-61
2021/05/20 02:08:10;;;;;;;2.47;2.28;;;;;;;14.09;67.40;100809.69;4902737;28;98920;-61
2021/05/20 02:10:37;;;;;;;2.55;2.25;;;;;;;14.08;67.16;100804.56;4903615;28;98491;-64
2021/05/20 02:13:03;;;;;;;2.55;2.35;;;;;;;14.09;67.37;100815.13;4906020;28;98157;-61
2021/05/20 02:15:29;;;;;;;2.55;2.30;;;;;;;14.09;67.34;100812.41;4904236;28;111230;-61
2021/05/20 02:17:55;;;;;;;2.60;2.40;;;;;;;14.08;67.50;100821.63;4918895;28;127699;-64
2021/05/20 02:20:21;;;;;;;2.63;2.42;;;;;;;14.05;67.33;100816.75;4919842;28;127299;-61
2021/05/20 02:22:49;;;;;;;3.45;2.35;;;;;;;14.05;67.32;100818.66;4913418;28;98087;-61
2021/05/20 02:25:16;;;;;;;2.30;2.10;;;;;;;14.04;67.55;100819.78;4921192;28;97890;-64
2021/05/20 02:27:42;;;;;;;2.50;2.28;;;;;;;14.05;67.52;100826.81;4920603;28;98795;-65
2021/05/20 02:30:09;;;;;;;2.25;2.03;;;;;;;14.03;67.36;100823.56;4901164;28;99747;-61
2021/05/20 02:32:35;;;;;;;2.40;2.20;;;;;;;14.03;67.25;100827.09;4901304;28;98332;-64
2021/05/20 02:35:03;;;;;;;2.70;1.98;;;;;;;14.03;67.61;100826.25;4918074;28;98205;-65
2021/05/20 02:37:29;;;;;;;2.60;2.40;;;;;;;14.02;67.42;100833.59;4920071;28;97991;-64
2021/05/20 02:39:55;;;;;;;2.45;2.25;;;;;;;14.00;67.51;100831.16;4922831;28;128642;-64
2021/05/20 02:42:21;;;;;;;2.63;2.40;;;;;;;14.00;67.18;100836.59;4913865;28;128016;-61
2021/05/20 02:44:47;;;;;;;2.47;2.28;;;;;;;14.00;67.51;100833.88;4911697;28;97721;-61
2021/05/20 02:47:16;;;;;;;2.50;2.30;;;;;;;13.99;67.26;100836.88;4923697;28;100364;-60
2021/05/20 02:49:45;;;;;;;3.58;2.20;;;;;;;13.97;67.39;100839.84;4889774;28;117038;-64
2021/05/20 02:52:11;;;;;;;2.97;2.33;;;;;;;13.95;67.61;100835.78;4899915;28;98217;-65
2021/05/20 02:54:38;;;;;;;2.42;2.00;;;;;;;13.96;67.71;100837.44;4899275;28;118124;-61
2021/05/20 02:57:05;;;;;;;3.15;2.42;;;;;;;13.96;67.55;100845.56;4873682;28;97895;-64
2021/05/20 02:59:31;;;;;;;2.33;2.13;;;;;;;13.97;67.53;100847.97;4903944;28;111907;-64
2021/05/20 03:02:04;;;;;;;3.45;2.45;;;;;;;13.98;67.37;100854.22;4904161;28;98888;-61
2021/05/20 03:04:32;;;;;;;2.55;2.35;;;;;;;13.98;67.59;100848.78;4904559;28;98125;-61
2021/05/20 03:06:58;;;;;;;3.08;2.20;;;;;;;13.98;67.35;100856.91;4903521;28;98173;-64
2021/05/20 03:09:25;;;;;;;2.75;2.42;;;;;;;13.99;67.58;100853.13;4885634;28;128366;-64
2021/05/20 03:11:51;;;;;;;2.42;2.22;;;;;;;14.02;67.02;100859.88;4904027;28;98343;-61
2021/05/20 03:14:18;;;;;;;2.72;2.38;;;;;;;14.10;67.24;100860.09;4904417;28;97843;-61
2021/05/20 03:16:44;;;;;;;2.42;2.13;;;;;;;14.17;67.04;100863.31;4904299;28;98241;-61
2021/05/20 03:19:10;;;;;;;3.05;2.38;;;;;;;14.20;66.97;100862.75;4914269;28;98454;-61
2021/05/20 03:21:36;;;;;;;2.72;2.20;;;;;;;14.24;66.79;100868.41;4923723;28;97873;-61
2021/05/20 03:24:02;;;;;;;3.65;2.50;;;;;;;14.27;67.36;100858.91;4923644;28;105583;-64
2021/05/20 03:26:28;;;;;;;2.53;2.22;;;;;;;14.29;66.93;100870.28;4904647;28;113156;-61
2021/05/20 03:28:54;;;;;;;3.25;2.33;;;;;;;14.29;67.09;100859.44;4887676;28;127116;-61
2021/05/20 03:31:20;;;;;;;2.38;2.17;;;;;;;14.28;67.13;100869.47;4922340;28;126907;-65
2021/05/20 03:33:46;;;;;;;2.58;2.15;;;;;;;14.31;67.02;100868.91;4904333;28;118539;-61
2021/05/20 03:36:12;;;;;;;2.67;2.17;;;;;;;14.32;67.28;100867.81;4922711;28;124092;-61
2021/05/20 03:38:38;;;;;;;2.60;2.33;;;;;;;14.34;67.01;100864.81;4887863;28;128539;-61
2021/05/20 03:41:04;;;;;;;2.45;2.25;;;;;;;14.31;67.35;100868.91;4879152;28;128167;-64
2021/05/20 03:43:35;;;;;;;2.75;1.95;;;;;;;14.31;67.10;100866.19;4885906;28;104132;-61
2021/05/20 03:46:01;;;;;;;2.42;2.20;;;;;;;14.32;67.59;100865.09;4886467;28;100803;-61
2021/05/20 03:48:27;;;;;;;2.95;2.50;;;;;;;14.30;67.66;100864.56;4904473;28;126860;-64
2021/05/20 03:50:55;;;;;;;2.70;2.10;;;;;;;14.30;67.68;100869.97;4903823;28;98616;-61
2021/05/20 03:53:21;;;;;;;3.15;2.25;;;;;;;14.34;67.37;100867.53;4904004;28;97875;-61
2021/05/20 03:55:48;;;;;;;2.50;2.30;;;;;;;14.33;67.63;100880.28;4903287;28;98471;-61
2021/05/20 03:58:15;;;;;;;2.38;2.17;;;;;;;14.35;67.43;100874.59;4903707;28;98251;-64
2021/05/20 04:00:41;;;;;;;2.67;2.30;;;;;;;14.35;67.70;100874.59;4915343;28;97968;-61
2021/05/20 04:03:07;;;;;;;2.90;2.20;;;;;;;14.39;67.91;100878.34;4922364;28;97886;-65
2021/05/20 04:05:33;;;;;;;2.55;2.20;;;;;;;14.40;67.61;100879.97;4922322;28;128093;-64
2021/05/20 04:07:59;;;;;;;2.42;2.13;;;;;;;14.45;67.55;100886.16;4922817;28;98187;-65
2021/05/20 04:10:25;;;;;;;2.25;2.05;;;;;;;14.48;67.69;100885.59;4904536;28;97987;-64
2021/05/20 04:12:51;;;;;;;2.53;2.33;;;;;;;14.49;67.57;100889.13;4922563;28;117747;-61
2021/05/20 04:15:17;;;;;;;2.63;2.30;;;;;;;14.53;67.67;100890.19;4921427;28;98460;-64
2021/05/20 04:17:44;;;;;;;2.75;2.15;;;;;;;14.54;67.85;100891.84;4887643;28;101122;-64
2021/05/20 04:20:11;;;;;;;2.58;2.38;;;;;;;14.54;68.12;100896.41;4922097;28;98239;-61
2021/05/20 04:22:39;;;;;;;2.67;2.25;;;;;;;14.55;68.06;100901.59;4922259;28;97859;-65
2021/05/20 04:25:06;;;;;;;3.22;2.40;;;;;;;14.56;68.01;100903.19;4904719;28;99939;-65
2021/05/20 04:27:32;;;;;;;2.88;2.50;;;;;;;14.61;68.21;100905.84;4887473;28;115946;-65
2021/05/20 04:29:58;;;;;;;2.40;2.20;;;;;;;14.61;67.94;100914.00;4903655;28;126572;-61
2021/05/20 04:32:24;;;;;;;2.35;2.15;;;;;;;14.65;68.23;100917.75;4903966;28;97997;-64
2021/05/20 04:34:50;;;;;;;2.80;2.22;;;;;;;14.66;68.20;100921.31;4883836;28;128489;-61
2021/05/20 04:37:16;;;;;;;2.25;2.03;;;;;;;14.64;68.14;100926.19;4884009;28;128489;-61
2021/05/20 04:39:43;;;;;;;2.70;2.17;;;;;;;14.65;68.34;100919.66;4902295;28;105599;-63
2021/05/20 04:42:09;;;;;;;2.53;2.33;;;;;;;14.68;68.08;100919.91;4902715;28;97865;-64
2021/05/20 04:44:35;;;;;;;3.15;2.42;;;;;;;14.79;67.99;100925.28;4884217;28;98080;-64
2021/05/20 04:47:01;;;;;;;2.42;2.22;;;;;;;14.90;67.73;100919.47;4883547;28;128267;-64
2021/05/20 04:49:27;;;;;;;2.72;2.40;;;;;;;15.03;67.68;100914.47;4883634;28;119160;-61
2021/05/20 04:51:53;;;;;;;2.55;2.35;;;;;;;15.11;67.89;100917.38;4901035;28;118649;-64
2021/05/20 04:54:19;;;;;;;2.30;2.10;;;;;;;15.21;67.55;100920.00;4867314;28;128544;-64
2021/05/20 04:56:45;;;;;;;2.50;2.20;;;;;;;15.36;67.01;100927.16;4919445;28;128566;-61
2021/05/20 04:59:11;;;;;;;2.30;2.10;;;;;;;15.45;66.99;100920.00;4901108;28;127571;-64
2021/05/20 05:01:37;;;;;;;3.65;2.30;;;;;;;15.60;66.92;100919.03;4919719;28;97919;-65
2021/05/20 05:04:03;;;;;;;2.58;2.20;;;;;;;15.76;66.79;100921.56;4899107;28;126401;-61
2021/05/20 05:06:29;;;;;;;2.70;2.10;;;;;;;15.97;66.06;100917.50;4917376;28;128095;-61
2021/05/20 05:08:55;;;;;;;1.92;1.73;;;;;;;16.13;65.87;100920.81;4917950;28;103480;-62
2021/05/20 05:11:21;;;;;;;2.10;1.83;;;;;;;16.55;64.35;100922.66;4913962;28;98253;-64
2021/05/20 05:13:47;;;;;;;2.53;2.00;;;;;;;16.90;63.74;100921.28;4917309;28;128040;-64
2021/05/20 05:16:14;;;;;;;2.42;1.88;;;;;;;17.23;63.12;100917.72;4881785;28;127348;-61
2021/05/20 05:18:40;;;;;;;2.40;1.75;;;;;;;17.49;62.48;100928.91;4900047;28;97981;-64
2021/05/20 05:21:06;;;;;;;3.20;1.77;;;;;;;17.77;62.66;100927.84;4919437;28;98100;-61
2021/05/20 05:23:32;;;;;;;2.78;1.58;;;;;;;18.11;61.27;100923.84;4918424;28;98800;-65
2021/05/20 05:25:58;;;;;;;2.75;1.70;;;;;;;18.09;61.44;100931.53;4864173;28;127371;-61
2021/05/20 05:28:24;;;;;;;1.75;1.65;;;;;;;18.06;61.38;100935.66;4918191;28;98461;-65
2021/05/20 05:30:50;;;;;;;2.30;1.73;;;;;;;18.14;61.84;100939.59;4881050;28;98175;-64
2021/05/20 05:33:16;;;;;;;1.65;1.55;;;;;;;18.14;62.42;100932.22;4917679;28;126891;-61
2021/05/20 05:35:42;;;;;;;2.10;1.52;;;;;;;17.95;62.63;100936.19;4900233;28;98001;-64
2021/05/20 05:38:08;;;;;;;2.00;1.80;;;;;;;17.85;63.60;100929.84;4917048;28;128951;-64
2021/05/20 05:40:34;;;;;;;2.00;1.60;;;;;;;17.67;64.20;100933.47;4918663;28;97998;-61
2021/05/20 05:43:00;;;;;;;2.30;1.88;;;;;;;17.53;64.66;100938.94;4917352;28;121045;-61
2021/05/20 05:45:26;;;;;;;1.60;1.50;;;;;;;17.42;65.10;100941.03;4917833;28;128223;-62
2021/05/20 05:47:55;;;;;;;1.98;1.70;;;;;;;17.34;65.04;100930.03;4917621;28;118658;-65
2021/05/20 05:50:21;;;;;;;2.97;1.70;;;;;;;17.33;66.11;100936.56;4918862;28;98027;-62
2021/05/20 05:52:51;;;;;;;1.75;1.50;;;;;;;17.37;65.93;100945.75;4900312;28;103707;-62
2021/05/20 05:55:17;;;;;;;2.50;1.60;;;;;;;17.40;65.65;100947.88;4917884;28;128278;-62
2021/05/20 05:57:43;;;;;;;2.35;1.60;;;;;;;17.37;65.93;100951.19;4882197;28;106281;-62
2021/05/20 06:00:09;;;;;;;2.58;1.90;;;;;;;17.35;65.91;100951.53;4899550;28;99163;-61
2021/05/20 06:02:35;;;;;;;2.60;1.90;;;;;;;17.27;66.11;100949.50;4902474;28;104617;-62
2021/05/20 06:05:01;;;;;;;2.08;1.73;;;;;;;17.37;66.04;100952.03;4899110;28;99700;-65
2021/05/20 06:07:27;;;;;;;1.90;1.55;;;;;;;17.39;65.83;100952.53;4913753;28;126717;-62
2021/05/20 06:09:53;;;;;;;1.77;1.50;;;;;;;17.50;65.67;100952.34;4917480;28;97850;-62
2021/05/20 06:12:19;;;;;;;2.60;1.88;;;;;;;17.48;65.86;100944.47;4900209;28;98940;-65
2021/05/20 06:14:46;;;;;;;2.25;1.77;;;;;;;17.49;66.03;100945.25;4920051;28;128156;-61
2021/05/20 06:17:12;;;;;;;1.67;1.58;;;;;;;17.47;66.61;100948.31;4911290;28;97908;-62
2021/05/20 06:19:38;;;;;;;2.58;1.77;;;;;;;17.49;66.00;100950.72;4882354;28;117291;-62
2021/05/20 06:22:04;;;;;;;1.77;1.50;;;;;;;17.58;65.78;100948.91;4920035;28;99458;-65
2021/05/20 06:24:30;;;;;;;2.38;1.58;;;;;;;17.69;65.53;100954.97;4920175;28;124670;-65
2021/05/20 06:26:56;;;;;;;2.47;1.80;;;;;;;17.83;65.42;100959.34;4914392;28;114730;-65
2021/05/20 06:29:22;;;;;;;2.60;1.42;;;;;;;17.85;65.09;100962.56;4903289;28;107563;-62
2021/05/20 06:31:48;;;;;;;1.92;1.70;;;;;;;17.83;65.51;100959.34;4918345;28;127542;-62
2021/05/20 06:34:14;;;;;;;1.75;1.40;;;;;;;17.88;65.47;100956.53;4885400;28;127804;-65
2021/05/20 06:36:40;;;;;;;1.80;1.40;;;;;;;17.86;65.72;100952.47;4902168;28;102366;-62
2021/05/20 06:39:08;;;;;;;2.75;1.60;;;;;;;17.83;66.19;100962.06;4921446;28;97877;-65
2021/05/20 06:41:34;;;;;;;1.75;1.60;;;;;;;17.85;65.27;100967.22;4882252;28;100743;-62
2021/05/20 06:44:00;;;;;;;1.65;1.55;;;;;;;17.90;65.29;100970.66;4920379;28;98301;-62
2021/05/20 06:46:26;;;;;;;2.10;1.52;;;;;;;17.99;65.44;100975.38;4915256;28;127211;-62
2021/05/20 06:48:54;;;;;;;2.33;1.45;;;;;;;18.04;65.39;100965.19;4886020;28;119118;-65
2021/05/20 06:51:20;;;;;;;2.33;1.50;;;;;;;18.15;64.91;100969.28;4902863;28;99151;-65
2021/05/20 06:53:48;;;;;;;2.47;1.33;;;;;;;18.22;64.37;100965.34;4920791;28;98828;-62
2021/05/20 06:56:21;;;;;;;4.20;1.42;;;;;;;18.43;63.63;100971.97;4920221;28;98253;-62
2021/05/20 07:01:32;;;;;;;1.50;1.13;;;;;;;18.68;63.36;100975.22;4917044;28;99441;-65
2021/05/20 07:03:58;;;;;;;1.90;1.50;;;;;;;18.69;62.95;100982.28;4887536;28;101178;-65
2021/05/20 07:06:24;;;;;;;1.98;1.35;;;;;;;18.66;63.44;100978.25;4892631;28;108953;-62
2021/05/20 07:08:50;;;;;;;2.15;1.30;;;;;;;18.73;63.20;100977.84;4919651;28;98545;-62
2021/05/20 07:11:16;;;;;;;2.75;1.30;;;;;;;18.73;62.83;100977.84;4918567;28;127081;-65
2021/05/20 07:13:42;;;;;;;2.60;1.42;;;;;;;18.81;63.71;100972.47;4901714;28;127143;-62
2021/05/20 07:16:08;;;;;;;1.50;1.40;;;;;;;18.91;62.52;100984.28;4901897;28;104540;-62
2021/05/20 07:18:34;;;;;;;1.85;1.15;;;;;;;19.47;61.15;100978.16;4906566;28;117822;-66
2021/05/20 07:21:00;;;;;;;1.42;0.95;;;;;;;19.91;62.74;100984.63;4896086;28;128469;-62
2021/05/20 07:23:27;;;;;;;1.42;1.08;;;;;;;20.41;61.75;100981.50;4889050;28;128865;-65
2021/05/20 07:25:53;;;;;;;1.30;1.05;;;;;;;21.63;60.77;100971.16;4890699;28;97997;-63
2021/05/20 07:28:22;;;;;;;1.10;0.85;;;;;;;22.68;58.81;100969.38;4892761;28;98899;-62
2021/05/20 07:30:48;;;;;;;1.30;0.60;;;;;;;23.54;57.02;100977.88;4879871;28;98580;-66
2021/05/20 07:33:14;;;;;;;1.30;0.68;;;;;;;23.51;58.10;100986.81;4893961;28;111981;-62
2021/05/20 07:35:40;;;;;;;1.58;0.55;;;;;;;23.92;57.81;100985.00;4895978;28;98106;-66
2021/05/20 07:38:06;;;;;;;1.15;0.60;;;;;;;24.87;55.82;100978.00;4884851;28;98145;-62
2021/05/20 07:40:32;;;;;;;1.45;0.50;;;;;;;26.24;52.93;100976.69;4884002;28;113249;-66
2021/05/20 07:42:58;;;;;;;1.38;0.50;;;;;;;26.75;52.46;100974.63;4897296;28;128122;-63
2021/05/20 07:45:24;;;;;;;0.77;0.35;;;;;;;26.51;53.44;100984.00;4898223;28;125287;-63
2021/05/20 07:47:50;;;;;;;1.00;0.40;;;;;;;26.21;54.19;100980.97;4884751;28;98150;-66
2021/05/20 07:50:17;;;;;;;1.17;0.50;;;;;;;26.45;53.65;100982.72;4879544;28;98915;-63
2021/05/20 07:52:44;;;;;;;1.30;0.40;;;;;;;26.29;54.33;100980.00;4885166;28;98263;-62
2021/05/20 07:55:11;;;;;;;0.90;0.40;;;;;;;25.31;56.15;100982.72;4884896;28;99561;-62
2021/05/20 07:57:37;;;;;;;0.82;0.40;;;;;;;24.58;58.15;100987.44;4902381;28;97806;-62
2021/05/20 08:00:06;;;;;;;0.80;0.40;;;;;;;24.20;58.77;100983.13;4908523;28;108670;-62
2021/05/20 08:03:01;;;;;;;1.38;0.60;;;;;;;23.98;58.95;100980.88;4916547;28;99038;-66
2021/05/20 08:05:27;;;;;;;1.10;0.50;;;;;;;24.38;57.92;100978.19;4916642;28;98673;-66
2021/05/20 08:08:18;;;;;;;1.02;0.40;;;;;;;24.47;57.62;100978.03;4904161;28;97968;-66
2021/05/20 08:13:16;;;;;;;0.90;0.30;;;;;;;24.96;56.40;100983.38;4912008;28;98488;-62
2021/05/20 08:15:42;;;;;;;0.90;0.40;;;;;;;26.13;53.72;100977.28;4912959;28;98525;-62
2021/05/20 08:18:08;;;;;;;0.82;0.40;;;;;;;27.49;50.80;100976.38;4919937;28;98109;-62
2021/05/20 08:20:34;;;;;;;1.02;0.40;;;;;;;29.92;45.57;100988.44;4914115;28;118248;-63
2021/05/20 08:23:00;;;;;;;1.02;0.40;;;;;;;29.29;47.68;100984.75;4919200;28;98716;-66
2021/05/20 08:25:26;;;;;;;0.98;0.30;;;;;;;28.46;49.25;100990.53;4898948;28;127552;-66
2021/05/20 08:27:52;;;;;;;0.88;0.40;;;;;;;27.66;50.99;100984.19;4916503;28;119303;-66
2021/05/20 08:30:20;;;;;;;1.77;0.40;;;;;;;27.03;52.62;100982.66;4894220;28;128008;-62
2021/05/20 08:32:46;;;;;;;1.15;0.40;;;;;;;26.42;53.74;100981.44;4893573;28;98381;-66
2021/05/20 08:35:13;;;;;;;0.80;0.50;;;;;;;25.96;54.37;100977.66;4919467;28;98255;-62
2021/05/20 08:37:39;;;;;;;1.25;0.40;;;;;;;25.49;55.56;100978.47;4893677;28;105238;-62
2021/05/20 08:40:10;;;;;;;1.42;0.47;;;;;;;25.17;55.58;100972.94;4915706;28;113126;-62
2021/05/20 08:42:36;;;;;;;0.93;0.60;;;;;;;24.83;56.13;100979.84;4915619;28;114817;-66
2021/05/20 08:45:25;;;;;;;1.77;0.73;;;;;;;24.54;56.46;100982.97;4916096;28;125647;-62
2021/05/20 08:47:52;;;;;;;1.20;0.63;;;;;;;24.06;57.90;100987.41;4918007;28;97964;-66
2021/05/20 08:50:19;;;;;;;1.05;0.52;;;;;;;24.23;56.60;100976.13;4884496;28;98280;-62
2021/05/20 08:52:46;;;;;;;1.42;0.88;;;;;;;24.67;55.04;100979.00;4911470;28;98533;-62
2021/05/20 08:55:17;;;;;;;1.23;0.98;;;;;;;24.93;54.48;100970.28;4913175;28;97949;-66
2021/05/20 08:57:43;;;;;;;1.30;0.80;;;;;;;24.81;55.48;100971.16;4913703;28;100917;-62
2021/05/20 09:00:12;;;;;;;1.00;0.80;;;;;;;24.03;57.15;100983.38;4897375;28;99478;-62
2021/05/20 09:02:38;;;;;;;1.88;1.10;;;;;;;23.55;58.60;100984.97;4893352;28;114472;-65
2021/05/20 09:05:21;;;;;;;1.10;1.00;;;;;;;23.66;57.82;100988.91;4912699;28;103168;-65
2021/05/20 09:07:54;;;;;;;1.20;0.90;;;;;;;24.82;54.75;100983.78;4895288;28;97970;-62
2021/05/20 09:10:33;;;;;;;1.27;0.77;;;;;;;25.16;54.39;100981.56;4905219;28;98943;-65
2021/05/20 09:13:13;;;;;;;1.30;1.02;;;;;;;25.80;52.79;100980.44;4917585;28;99198;-62
2021/05/20 09:15:42;;;;;;;1.42;0.90;;;;;;;26.48;50.99;100986.72;4917421;28;98040;-66
2021/05/20 09:18:22;;;;;;;1.25;0.80;;;;;;;26.80;49.98;100988.19;4900715;28;97972;-66
2021/05/20 09:20:56;;;;;;;0.82;0.68;;;;;;;26.83;50.54;100983.88;4909255;28;98408;-66
2021/05/20 09:23:28;;;;;;;1.02;0.82;;;;;;;26.26;51.72;100993.72;4872928;28;100285;-62
2021/05/20 09:26:04;;;;;;;1.08;0.80;;;;;;;25.79;52.77;100989.88;4899350;28;98479;-62
2021/05/20 09:28:40;;;;;;;1.65;0.80;;;;;;;25.81;52.75;100982.03;4912838;28;98205;-62
2021/05/20 09:31:07;;;;;;;1.10;0.63;;;;;;;25.79;52.83;100983.56;4893528;28;98481;-66
2021/05/20 09:33:33;;;;;;;1.52;0.68;;;;;;;25.66;53.76;100980.88;4916967;28;98307;-66
2021/05/20 09:35:59;;;;;;;1.35;0.70;;;;;;;25.15;54.22;100974.44;4915379;28;120684;-66
2021/05/20 09:38:26;;;;;;;1.23;0.70;;;;;;;24.70;55.48;100970.84;4913752;28;105417;-62
2021/05/20 09:41:04;;;;;;;1.10;0.70;;;;;;;24.92;54.48;100969.50;4915754;28;99201;-62
2021/05/20 09:43:39;;;;;;;2.80;0.77;;;;;;;26.61;49.91;100963.31;4911557;28;97787;-66
2021/05/20 09:46:13;;;;;;;0.95;0.55;;;;;;;28.40;46.30;100971.84;4918493;28;98404;-66
2021/05/20 09:48:49;;;;;;;1.55;0.60;;;;;;;30.52;41.94;100970.50;4919408;28;97985;-63
2021/05/20 09:51:29;;;;;;;0.93;0.43;;;;;;;29.02;45.91;100972.97;4920696;28;98872;-63
2021/05/20 09:53:56;;;;;;;0.90;0.32;;;;;;;28.41;47.13;100968.69;4917172;28;98590;-66
2021/05/20 09:56:33;;;;;;;1.50;0.43;;;;;;;27.43;49.67;100964.81;4921278;28;98079;-63
2021/05/20 09:58:59;;;;;;;2.03;0.50;;;;;;;26.57;51.74;100960.47;4899119;28;98162;-66
2021/05/20 10:01:25;;;;;;;1.20;0.50;;;;;;;25.86;52.86;100956.94;4900257;28;128627;-66
2021/05/20 10:03:55;;;;;;;1.15;0.50;;;;;;;25.21;54.44;100957.28;4901428;28;126190;-62
2021/05/20 10:06:42;;;;;;;1.10;0.50;;;;;;;24.74;55.29;100949.69;4902926;28;98396;-66
2021/05/20 10:09:12;;;;;;;1.20;0.50;;;;;;;24.14;56.07;100951.50;4921426;28;97884;-66
2021/05/20 10:11:39;;;;;;;1.35;0.60;;;;;;;23.43;56.77;100971.22;4917180;28;97876;-65
2021/05/20 10:14:05;;;;;;;1.30;0.88;;;;;;;22.87;57.43;100979.88;4921240;28;119436;-62
2021/05/20 10:16:35;;;;;;;2.08;0.80;;;;;;;22.28;59.57;100991.81;4903018;28;98696;-62
2021/05/20 10:19:01;;;;;;;1.02;0.80;;;;;;;21.81;60.38;100993.81;4903514;28;98031;-62
2021/05/20 10:21:30;;;;;;;1.45;1.00;;;;;;;21.42;61.16;100998.53;4903272;28;98610;-66
2021/05/20 10:23:57;;;;;;;1.25;0.70;;;;;;;21.22;61.77;100990.94;4883311;28;98008;-66
2021/05/20 10:26:23;;;;;;;1.45;0.80;;;;;;;21.12;62.04;100988.56;4882363;28;98925;-65
2021/05/20 10:28:49;;;;;;;2.10;0.90;;;;;;;21.01;62.05;101008.09;4921832;28;112380;-62
2021/05/20 10:31:15;;;;;;;1.42;0.80;;;;;;;20.94;61.78;101002.28;4919439;28;112878;-65
2021/05/20 10:33:43;;;;;;;1.13;0.70;;;;;;;20.77;62.28;100994.91;4917255;28;109126;-66
2021/05/20 10:36:29;;;;;;;1.10;0.60;;;;;;;20.69;62.17;100992.97;4900458;28;98203;-66
2021/05/20 10:38:55;;;;;;;0.95;0.52;;;;;;;20.62;61.88;100989.09;4920277;28;98057;-62
2021/05/20 10:41:24;;;;;;;1.83;0.65;;;;;;;20.59;62.43;100990.53;4900251;28;127445;-62
2021/05/20 10:44:03;;;;;;;1.33;0.60;;;;;;;20.65;61.86;100982.97;4909504;28;97945;-62
2021/05/20 10:46:29;;;;;;;1.25;0.50;;;;;;;20.96;61.27;100978.13;4919574;28;97955;-65
2021/05/20 10:49:02;;;;;;;1.02;0.40;;;;;;;23.26;55.05;100975.78;4916345;28;115630;-62
2021/05/20 10:51:38;;;;;;;1.20;0.40;;;;;;;26.03;49.10;100969.53;4897609;28;98273;-62
2021/05/20 10:54:04;;;;;;;1.25;0.35;;;;;;;29.04;43.56;100980.91;4900953;28;98686;-66
2021/05/20 10:56:32;;;;;;;0.50;0.30;;;;;;;30.75;40.90;100981.34;4913513;28;98240;-63
2021/05/20 10:58:59;;;;;;;0.75;0.22;;;;;;;31.93;38.93;100987.03;4905044;28;98114;-63
2021/05/20 11:01:30;;;;;;;0.70;0.20;;;;;;;30.44;42.57;100980.81;4920725;28;99079;-66
2021/05/20 11:03:57;;;;;;;0.75;0.30;;;;;;;32.11;39.74;100968.28;4919284;28;98362;-63
2021/05/20 11:06:45;;;;;;;0.80;0.30;;;;;;;33.47;37.08;100975.94;4919840;28;98484;-66
2021/05/20 11:09:13;;;;;;;0.80;0.30;;;;;;;34.42;36.00;100958.59;4916138;28;98624;-64
2021/05/20 11:11:39;;;;;;;0.60;0.22;;;;;;;35.13;34.92;100968.00;4920969;28;98786;-68
2021/05/20 11:14:14;;;;;;;0.52;0.20;;;;;;;35.67;34.46;100955.94;4920266;28;98021;-64
2021/05/20 11:16:44;;;;;;;0.82;0.20;;;;;;;35.96;34.26;100950.56;4899512;28;98064;-68
2021/05/20 11:19:20;;;;;;;1.23;0.20;;;;;;;36.35;33.65;100958.22;4916133;28;98832;-67
2021/05/20 11:22:09;;;;;;;1.02;0.30;;;;;;;36.45;33.74;100936.78;4912050;28;98325;-68
2021/05/20 11:24:42;;;;;;;0.60;0.20;;;;;;;34.55;36.89;100928.09;4911520;28;98945;-67
2021/05/20 11:27:16;;;;;;;1.13;0.28;;;;;;;35.70;35.02;100922.25;4914366;28;98045;-64
2021/05/20 11:29:44;;;;;;;0.70;0.22;;;;;;;35.39;35.34;100924.38;4919847;28;98079;-64
2021/05/20 11:37:33;;;;;;;0.52;0.20;;;;;;;32.19;41.58;100911.31;4910788;28;98194;-67
2021/05/20 11:40:00;;;;;;;0.77;0.30;;;;;;;30.87;44.13;100902.28;4913146;28;98692;-63